Chadstone Weather > Observations for 28/09/20

Select Day:



Observations
Time Temp Hum DP Wind Gust Dir Rain >9am Press
C % C kph kph mm hPa
00:00 7.8 85 5.4 2.0 3.6 SE 0.0 1035.6
00:10 7.7 86 5.5 0.8 3.6 SSE 0.0 1035.6
00:20 7.8 86 5.6 0.4 2.5 S 0.0 1035.5
00:30 7.9 86 5.7 0.5 2.5 S 0.0 1035.3
00:40 7.8 86 5.6 1.1 2.5 NW 0.0 1035.1
00:50 7.9 86 5.7 0.3 2.5 SW 0.0 1035.1
01:00 7.9 86 5.7 0.0 0.0 N 0.0 1035.1
01:10 7.9 86 5.7 0.0 0.0 N 0.0 1035.1
01:20 7.9 86 5.7 0.0 0.0 N 0.0 1035.0
01:30 7.9 86 5.7 0.0 0.0 N 0.0 1035.0
01:40 7.9 86 5.7 0.0 0.0 N 0.0 1035.1
01:50 7.9 86 5.7 0.0 0.0 N 0.0 1034.9
02:00 7.9 86 5.7 0.0 0.0 N 0.0 1034.8
02:10 7.9 86 5.7 0.0 0.0 N 0.0 1034.8
02:20 7.9 86 5.7 0.0 0.0 N 0.0 1034.7
02:30 7.9 86 5.7 0.0 0.0 N 0.0 1034.6
02:40 7.9 86 5.7 0.0 0.0 N 0.0 1034.6
02:50 8.0 87 6.0 1.1 2.5 NW 0.0 1034.5
03:00 7.9 86 5.7 1.0 3.6 NNE 0.0 1034.4
03:10 8.0 86 5.8 0.0 2.5 N 0.0 1034.4
03:20 7.9 85 5.5 0.5 2.5 NW 0.0 1034.4
03:30 7.9 85 5.5 1.1 2.5 NW 0.0 1034.5
03:40 7.9 85 5.5 0.0 1.1 W 0.0 1034.4
03:50 7.9 85 5.5 0.0 1.1 W 0.0 1034.3
04:00 7.9 85 5.5 0.0 1.1 W 0.0 1034.2
04:10 7.9 85 5.5 0.0 1.1 W 0.0 1034.3
04:20 7.9 85 5.5 0.0 1.1 W 0.0 1034.4
04:30 7.9 85 5.5 0.0 1.1 W 0.0 1034.3
04:40 7.9 85 5.5 0.0 1.1 W 0.0 1034.3
04:50 7.9 85 5.5 0.0 1.1 W 0.0 1034.4
05:00 7.9 85 5.5 0.0 1.1 W 0.0 1034.3
05:10 7.9 85 5.5 0.0 1.1 W 0.0 1034.6
05:20 7.9 85 5.5 0.0 1.1 W 0.0 1034.7
05:30 7.9 85 5.5 0.0 1.1 W 0.0 1034.7
05:40 7.9 85 5.5 0.0 1.1 W 0.0 1034.6
05:50 7.9 85 5.5 0.0 1.1 W 0.0 1034.6
06:00 7.9 85 5.5 0.0 1.1 W 0.0 1034.8
06:10 7.5 84 5.0 1.8 5.0 NNW 0.0 1034.7
06:20 7.5 84 5.0 1.3 3.6 N 0.0 1034.8
06:30 7.5 84 5.0 3.2 6.1 NE 0.0 1035.0
06:40 7.5 84 5.0 4.9 6.1 NE 0.0 1035.2
06:50 7.5 84 5.0 2.5 3.6 N 0.0 1035.3
07:00 7.5 84 5.0 2.5 3.6 N 0.0 1035.2
07:10 7.5 84 5.0 2.5 3.6 N 0.0 1035.3
07:20 7.5 84 5.0 2.5 3.6 N 0.0 1035.2
07:30 7.5 84 5.0 2.5 3.6 N 0.0 1035.4
07:40 7.5 84 5.0 2.5 3.6 N 0.0 1035.3
07:50 7.5 84 5.0 2.5 3.6 N 0.0 1035.3
08:00 7.5 84 5.0 2.5 3.6 N 0.0 1035.3
08:10 7.5 84 5.0 2.5 3.6 N 0.0 1035.4
08:20 7.5 84 5.0 2.5 3.6 N 0.0 1035.4
08:30 7.5 84 5.0 2.5 3.6 N 0.0 1035.3
08:40 10.6 77 6.7 2.5 6.1 NW 0.0 1035.4
08:50 10.9 75 6.6 2.5 6.1 NE 0.0 1035.3
09:00 11.4 72 6.5 1.9 5.0 E 0.0 1035.5
09:10 11.7 68 6.0 3.0 15.8 S 0.0 1035.6
09:20 12.3 67 6.4 4.8 15.8 SE 0.0 1035.7
09:30 12.0 65 5.6 2.5 8.6 S 0.0 1035.8
09:40 11.8 66 5.7 1.3 5.0 WSW 0.0 1035.7
09:50 11.8 65 5.4 2.8 8.6 SSW 0.0 1035.9
10:00 11.6 65 5.2 1.9 8.6 SSW 0.0 1035.8
10:10 11.7 65 5.3 2.8 11.2 SW 0.0 1035.8
10:20 12.0 64 5.4 1.8 7.2 SE 0.0 1035.7
10:30 12.6 64 6.0 4.2 9.7 SE 0.0 1035.6
10:40 13.5 63 6.6 3.2 8.6 S 0.0 1035.5
10:50 13.4 63 6.5 2.1 7.2 SSW 0.0 1035.4
11:00 13.2 63 6.3 3.0 8.6 W 0.0 1035.1
11:10 13.4 63 6.5 2.4 9.7 W 0.0 1034.9
11:20 13.2 61 5.8 4.3 12.2 S 0.0 1034.9
11:30 13.6 61 6.2 3.4 9.7 SW 0.0 1034.7
11:40 13.5 59 5.6 2.1 8.6 WNW 0.0 1034.5
11:50 13.7 59 5.8 3.8 13.3 SSW 0.0 1034.5
12:00 14.0 57 5.6 3.5 9.7 S 0.0 1034.6
12:10 14.2 56 5.6 3.3 11.2 SSW 0.0 1034.3
12:20 14.6 56 5.9 3.7 11.2 N 0.0 1034.3
12:30 15.0 55 6.0 3.0 8.6 W 0.0 1034.1
12:40 15.3 55 6.3 4.4 9.7 WSW 0.0 1033.7
12:50 15.2 54 6.0 3.2 13.3 SW 0.0 1033.7
13:00 15.4 56 6.7 5.9 13.3 WNW 0.0 1033.4
13:10 15.1 55 6.1 5.4 13.3 S 0.0 1033.3
13:20 15.0 55 6.0 4.1 13.3 SE 0.0 1033.1
13:30 14.9 56 6.2 4.0 13.3 S 0.0 1033.1
13:40 14.9 56 6.2 4.4 12.2 SW 0.0 1033.1
13:50 14.9 57 6.5 7.6 22.0 ESE 0.0 1033.5
14:00 14.8 56 6.1 5.2 15.8 S 0.0 1033.5
14:10 14.8 58 6.6 3.5 15.8 SSE 0.0 1033.0
14:20 15.0 56 6.3 5.0 15.8 ESE 0.0 1032.9
14:30 15.0 57 6.6 3.1 11.2 SSW 0.0 1032.6
14:40 15.1 56 6.4 4.2 14.8 SSE 0.0 1032.4
14:50 14.6 58 6.4 7.5 17.3 S 0.0 1032.5
15:00 15.0 57 6.6 3.3 11.2 SSE 0.0 1032.5
15:10 14.7 59 6.8 3.7 11.2 SSW 0.0 1032.3
15:20 14.9 59 7.0 5.3 15.8 SW 0.0 1032.3
15:30 14.9 59 7.0 3.5 12.2 SSW 0.0 1032.3
15:40 14.9 59 7.0 4.1 12.2 S 0.0 1032.6
15:50 14.9 59 7.0 5.1 12.2 ESE 0.0 1032.9
16:00 14.6 59 6.7 9.3 18.4 SSE 0.0 1032.6
16:10 14.3 60 6.6 3.9 15.8 WSW 0.0 1032.8
16:20 14.2 60 6.6 3.3 11.2 SSE 0.0 1033.0
16:30 14.1 62 6.9 4.4 13.3 SSE 0.0 1033.1
16:40 13.8 63 6.9 3.7 13.3 S 0.0 1033.2
16:50 13.6 64 6.9 3.3 12.2 S 0.0 1033.4
17:00 13.4 65 7.0 2.2 8.6 SSW 0.0 1033.0
17:10 13.2 65 6.8 3.1 13.3 S 0.0 1032.9
17:20 13.1 66 6.9 5.3 15.8 SSW 0.0 1033.1
17:30 12.7 66 6.5 6.0 15.8 SSW 0.0 1033.1
17:40 12.5 68 6.8 6.5 14.8 SSE 0.0 1033.2
17:50 12.3 69 6.8 4.3 12.2 SSW 0.0 1033.5
18:00 12.2 70 6.9 2.7 9.7 S 0.0 1033.5
18:10 12.0 71 6.9 1.5 7.2 S 0.0 1033.5
18:20 11.9 72 7.0 2.6 11.2 SSW 0.0 1033.4
18:30 11.9 73 7.2 2.0 8.6 SSW 0.0 1033.3
18:40 11.6 73 6.9 0.1 2.5 SSW 0.0 1033.3
18:50 11.5 74 7.0 0.2 3.6 SW 0.0 1033.3
19:00 11.4 74 6.9 1.9 6.1 SSE 0.0 1033.3
19:10 11.3 74 6.8 3.0 8.6 SSW 0.0 1033.3
19:20 11.1 74 6.6 5.7 14.8 SSE 0.0 1033.3
19:30 11.0 74 6.5 6.0 13.3 S 0.0 1033.4
19:40 10.8 75 6.5 6.6 13.3 SSE 0.0 1033.5
19:50 10.7 75 6.5 5.3 13.3 SE 0.0 1033.5
20:00 10.6 75 6.4 4.3 9.7 SSE 0.0 1033.3
20:10 10.5 76 6.5 6.9 15.8 SSE 0.0 1033.4
20:20 10.4 75 6.2 7.5 13.3 SE 0.0 1033.4
20:30 10.4 75 6.2 6.1 13.3 SSE 0.0 1033.4
20:40 10.3 75 6.1 5.8 13.3 SSE 0.0 1033.4
20:50 10.2 75 6.0 7.9 14.8 SE 0.0 1033.5
21:00 10.1 76 6.1 6.9 14.8 ESE 0.0 1033.7
21:10 10.1 76 6.1 6.8 14.8 S 0.0 1033.7
21:20 10.0 76 6.0 7.7 15.8 ESE 0.0 1033.8
21:30 9.9 77 6.1 6.2 15.8 SE 0.0 1033.7
21:40 9.8 77 6.0 7.2 17.3 SE 0.0 1033.6
21:50 9.7 78 6.1 6.9 15.8 SE 0.0 1033.7
22:00 9.5 78 5.9 8.2 15.8 SE 0.0 1033.8
22:10 9.4 78 5.8 7.3 13.3 SE 0.0 1033.8
22:20 9.3 79 5.8 6.2 13.3 ESE 0.0 1033.7
22:30 9.2 79 5.8 6.4 13.3 SE 0.0 1033.6
22:40 9.1 79 5.7 5.6 12.2 SE 0.0 1033.6
22:50 9.0 79 5.6 4.7 11.2 SE 0.0 1033.5
23:00 9.0 80 5.7 4.6 12.2 ESE 0.0 1033.4
23:10 8.9 81 5.8 4.2 11.2 SE 0.0 1033.4
23:20 8.8 81 5.7 5.0 11.2 SE 0.0 1032.9
23:30 8.8 81 5.7 3.8 9.7 SE 0.0 1032.9
23:40 8.6 81 5.5 1.5 7.2 SE 0.0 1032.6
23:50 8.5 82 5.6 3.1 7.2 SE 0.0 1032.5